W K Kellogg Airport
KBTL : now visible

Airfield :











YOU CAN JOIN US ON...

 
LOGIN :

Register | Disclaimer

   EN    FR    IT 

 









Legend :    VFR   Marginal VFR   IFR   Intensive IFR   Very Intensive IFR
Visi :
Ceiling :
>= 8 km
>= 3000ft
5 to 8 km
1000 to 3000 ft
1500m to 5 km
500 to 1000 ft
800 to 1500m
200 to 500 ft
< 800m
< 200 ft
Symbols :   Thunderstorms  Fog  Heavy snow  Heavy precipitations  Wind > 20 kt







- Airport Elevation : 952 ft


KBTL - W K Kellogg

CURRENT METAR :
  • 210203Z AUTO 00000KT 10SM FEW014 06/03 A2984 RMK AO2 T00610028

EXPIRED METARs :
  • 210153Z 00000KT 10SM BKN014 06/02 A2983 RMK AO2 SLP108 T00560022
  • 210137Z 00000KT 10SM BKN014 07/03 A2983 RMK AO2 T00670033
  • 210129Z 00000KT 10SM BKN016 07/03 A2982 RMK AO2 T00670033
  • 210112Z 00000KT 10SM BKN017 BKN070 07/03 A2982 RMK AO2 T00720033
  • 210053Z 05006KT 10SM SCT070 07/03 A2981 RMK AO2 SLP101 T00720033
  • 202353Z 08009KT 10SM OVC075 09/04 A2977 RMK AO2 SLP087 T00890039 10144 20089 51026

TAF KBTL
Valid from the 21 at 00:00 until the 22 at 00:00 UTC


202340Z 2100/2124 06010KT P6SM BKN060
FM210100 VRB03KT P6SM SKC
FM211200 21005KT P6SM SKC
KZAU FIR / North America



MET'MAP, your aeronautical weather chart ! - Copyright ORBIFLY December 2007 - Disclaimer

ORBIFLY MET'MAP TEAM :

Programming & Development : Alexandra Zaïnal
Concept & Development : Baudouin d'Aumeries
Co-Development & Prog : Marc-Olivier Méhu
Technical & hardware support : Manuel Goepfert

Contact : metmap@orbifly.com




SOURCES & CREDITS :

   NOAA       Earth
Advisory